Time;durP1;ratioP1;P1;durP2;ratioP2;P2;SDS_P1;SDS_P2;PMS_P1;PMS_P2;Temp;Humidity;BMP_temperature;BMP_pressure;BME280_temperature;BME280_humidity;BME280_pressure;Samples;Min_cycle;Max_cycle;Signal;HPM_P1;HPM_P2
2021/10/21 00:00:17;;;;;;;12.15;6.13;;;;;;;;;;6224500;23;20191;-90
2021/10/21 00:03:22;;;;;;;12.88;6.03;;;;;;;;;;6228925;23;20267;-91
2021/10/21 00:06:27;;;;;;;14.50;7.60;;;;;;;;;;6228494;23;20302;-91
2021/10/21 00:09:32;;;;;;;12.93;6.47;;;;;;;;;;6228815;23;20171;-90
2021/10/21 00:12:39;;;;;;;11.20;5.95;;;;;;;;;;6226655;23;20226;-90
2021/10/21 00:15:45;;;;;;;13.57;5.78;;;;;;;;;;6227586;23;20176;-91
2021/10/21 00:18:50;;;;;;;12.93;5.95;;;;;;;;;;6229691;23;20159;-90
2021/10/21 00:21:56;;;;;;;13.18;5.97;;;;;;;;;;6230207;23;20206;-90
2021/10/21 00:25:02;;;;;;;12.60;5.60;;;;;;;;;;6227451;23;20224;-90
2021/10/21 00:28:08;;;;;;;10.27;5.85;;;;;;;;;;6228255;23;20226;-90
2021/10/21 00:31:14;;;;;;;11.77;5.78;;;;;;;;;;6227326;23;20171;-90
2021/10/21 00:34:25;;;;;;;12.25;5.40;;;;;;;;;;6230370;23;20178;-88
2021/10/21 00:37:31;;;;;;;14.02;6.00;;;;;;;;;;6228449;23;20172;-89
2021/10/21 00:40:36;;;;;;;12.50;5.95;;;;;;;;;;6228191;23;20203;-90
2021/10/21 00:43:43;;;;;;;9.05;5.35;;;;;;;;;;6228159;23;20254;-89
2021/10/21 00:46:49;;;;;;;11.13;5.38;;;;;;;;;;6228406;23;20309;-90
2021/10/21 00:49:55;;;;;;;16.13;6.13;;;;;;;;;;6230621;23;20183;-90
2021/10/21 00:53:02;;;;;;;13.80;6.03;;;;;;;;;;6230767;23;20182;-91
2021/10/21 00:56:08;;;;;;;16.00;5.72;;;;;;;;;;6227391;23;20178;-90
2021/10/21 00:59:15;;;;;;;14.82;6.47;;;;;;;;;;6229497;23;20175;-90
2021/10/21 01:02:20;;;;;;;11.65;5.38;;;;;;;;;;6227326;23;20294;-88
2021/10/21 01:05:26;;;;;;;14.23;5.60;;;;;;;;;;6226290;23;20194;-89
2021/10/21 01:08:31;;;;;;;10.02;5.90;;;;;;;;;;6225116;23;20245;-89
2021/10/21 01:11:36;;;;;;;12.38;6.80;;;;;;;;;;6225766;23;20602;-89
2021/10/21 01:14:43;;;;;;;11.88;6.47;;;;;;;;;;6225889;23;20163;-89
2021/10/21 01:17:49;;;;;;;11.68;5.70;;;;;;;;;;6226046;23;20179;-90
2021/10/21 01:20:56;;;;;;;16.30;6.10;;;;;;;;;;6227610;23;20183;-89
2021/10/21 01:24:01;;;;;;;13.25;6.47;;;;;;;;;;6226440;23;20171;-90
2021/10/21 01:27:05;;;;;;;10.93;5.82;;;;;;;;;;6226605;23;20190;-90
2021/10/21 01:30:17;;;;;;;13.02;6.28;;;;;;;;;;6226417;23;20288;-89
2021/10/21 01:33:29;;;;;;;15.80;5.90;;;;;;;;;;6224355;23;20171;-89
2021/10/21 01:36:36;;;;;;;14.77;6.28;;;;;;;;;;6226428;23;20155;-89
2021/10/21 01:39:41;;;;;;;12.65;6.13;;;;;;;;;;6226547;23;20271;-89
2021/10/21 01:42:47;;;;;;;9.82;6.00;;;;;;;;;;6225442;23;20175;-89
2021/10/21 01:45:53;;;;;;;11.18;6.25;;;;;;;;;;6224857;23;20627;-89
2021/10/21 01:48:59;;;;;;;11.32;6.38;;;;;;;;;;6224649;23;20164;-89
2021/10/21 01:52:06;;;;;;;12.82;5.88;;;;;;;;;;6223656;23;20167;-90
2021/10/21 01:55:12;;;;;;;10.85;5.82;;;;;;;;;;6225552;23;20634;-90
2021/10/21 01:58:17;;;;;;;10.98;6.20;;;;;;;;;;6225161;23;20179;-90
2021/10/21 02:01:23;;;;;;;11.68;6.38;;;;;;;;;;6225610;23;20274;-90
2021/10/21 02:04:28;;;;;;;12.38;6.15;;;;;;;;;;6225593;23;20178;-88
2021/10/21 02:07:35;;;;;;;13.60;5.93;;;;;;;;;;6224225;23;20653;-90
2021/10/21 02:10:40;;;;;;;12.60;6.55;;;;;;;;;;6225586;23;20167;-90
2021/10/21 02:13:46;;;;;;;14.63;6.10;;;;;;;;;;6226140;23;20187;-89
2021/10/21 02:16:51;;;;;;;9.73;5.13;;;;;;;;;;6224789;23;20262;-90
2021/10/21 02:19:56;;;;;;;8.55;5.28;;;;;;;;;;6224315;23;20186;-89
2021/10/21 02:23:03;;;;;;;11.60;5.72;;;;;;;;;;6223266;23;20574;-90
2021/10/21 02:26:08;;;;;;;9.57;5.53;;;;;;;;;;6223579;23;20182;-89
2021/10/21 02:29:13;;;;;;;11.07;5.38;;;;;;;;;;6224779;23;20622;-89
2021/10/21 02:32:18;;;;;;;9.50;5.07;;;;;;;;;;6224975;23;20302;-90
2021/10/21 02:35:23;;;;;;;9.63;4.95;;;;;;;;;;6226227;23;20167;-90
2021/10/21 02:38:29;;;;;;;9.05;5.25;;;;;;;;;;6225090;23;20170;-89
2021/10/21 02:41:35;;;;;;;11.90;6.05;;;;;;;;;;6224967;23;20191;-91
2021/10/21 02:44:40;;;;;;;10.55;5.60;;;;;;;;;;6224037;23;20266;-89
2021/10/21 02:47:45;;;;;;;11.07;5.93;;;;;;;;;;6227013;23;20279;-89
2021/10/21 02:50:50;;;;;;;10.20;5.32;;;;;;;;;;6225992;23;20186;-89
2021/10/21 02:53:56;;;;;;;15.07;5.80;;;;;;;;;;6225628;23;20226;-89
2021/10/21 02:57:02;;;;;;;10.25;5.60;;;;;;;;;;6225448;23;20271;-90
2021/10/21 03:00:07;;;;;;;12.35;5.60;;;;;;;;;;6226228;23;20221;-88
2021/10/21 03:03:12;;;;;;;11.10;5.60;;;;;;;;;;6225762;23;20619;-89
2021/10/21 03:06:17;;;;;;;9.75;5.53;;;;;;;;;;6225143;23;20163;-90
2021/10/21 03:09:24;;;;;;;10.65;5.95;;;;;;;;;;6226844;23;20226;-89
2021/10/21 03:12:29;;;;;;;12.45;5.95;;;;;;;;;;6223544;23;20171;-88
2021/10/21 03:15:34;;;;;;;13.75;6.30;;;;;;;;;;6224674;23;20159;-90
2021/10/21 03:18:39;;;;;;;16.85;5.88;;;;;;;;;;6225192;23;20155;-89
2021/10/21 03:21:44;;;;;;;12.80;6.57;;;;;;;;;;6224900;23;20239;-88
2021/10/21 03:24:51;;;;;;;13.05;6.78;;;;;;;;;;6225797;23;20198;-90
2021/10/21 03:27:57;;;;;;;11.75;6.38;;;;;;;;;;6224174;23;20187;-89
2021/10/21 03:31:02;;;;;;;13.23;6.10;;;;;;;;;;6223924;23;20160;-90
2021/10/21 03:34:11;;;;;;;14.35;6.10;;;;;;;;;;6223078;23;20251;-89
2021/10/21 03:37:16;;;;;;;12.52;6.07;;;;;;;;;;6225496;23;20607;-90
2021/10/21 03:40:22;;;;;;;11.55;6.55;;;;;;;;;;6224749;23;20167;-89
2021/10/21 03:43:27;;;;;;;13.57;6.65;;;;;;;;;;6225611;23;20172;-89
2021/10/21 03:46:32;;;;;;;13.20;6.40;;;;;;;;;;6225517;23;20167;-89
2021/10/21 03:49:38;;;;;;;14.82;6.25;;;;;;;;;;6225397;23;20159;-90
2021/10/21 03:52:43;;;;;;;11.38;6.60;;;;;;;;;;6225835;23;20252;-89
2021/10/21 03:55:49;;;;;;;10.40;6.15;;;;;;;;;;6225687;23;20171;-90
2021/10/21 03:58:54;;;;;;;12.20;5.90;;;;;;;;;;6226261;23;20187;-89
2021/10/21 04:02:00;;;;;;;12.20;5.90;;;;;;;;;;6223878;23;20195;-90
2021/10/21 04:05:05;;;;;;;14.20;6.40;;;;;;;;;;6226786;23;20163;-90
2021/10/21 04:08:10;;;;;;;12.60;6.32;;;;;;;;;;6226583;23;20190;-89
2021/10/21 04:11:17;;;;;;;9.55;6.05;;;;;;;;;;6227908;23;20162;-89
2021/10/21 04:14:21;;;;;;;13.90;7.15;;;;;;;;;;6226848;23;20167;-89
2021/10/21 04:17:26;;;;;;;17.95;6.60;;;;;;;;;;6225458;23;20223;-90
2021/10/21 04:20:31;;;;;;;15.50;7.07;;;;;;;;;;6226168;23;20207;-89
2021/10/21 04:23:37;;;;;;;13.65;7.10;;;;;;;;;;6228391;23;20178;-90
2021/10/21 04:26:44;;;;;;;15.18;6.75;;;;;;;;;;6226028;23;20207;-91
2021/10/21 04:29:49;;;;;;;13.68;6.97;;;;;;;;;;6227725;23;20191;-89
2021/10/21 04:32:54;;;;;;;15.90;7.18;;;;;;;;;;6229674;23;20210;-89
2021/10/21 04:35:59;;;;;;;13.95;6.60;;;;;;;;;;6227614;23;20622;-89
2021/10/21 04:39:06;;;;;;;14.68;7.05;;;;;;;;;;6228916;23;20268;-89
2021/10/21 04:42:20;;;;;;;13.77;6.70;;;;;;;;;;6228771;23;20191;-91
2021/10/21 04:48:44;;;;;;;12.05;6.63;;;;;;;;;;6226547;23;20162;-92
2021/10/21 04:51:49;;;;;;;13.48;6.75;;;;;;;;;;6225334;23;20152;-91
2021/10/21 04:54:55;;;;;;;17.55;6.20;;;;;;;;;;6225473;23;20167;-89
2021/10/21 04:58:02;;;;;;;11.40;6.53;;;;;;;;;;6226995;23;20163;-90
2021/10/21 05:01:07;;;;;;;12.77;7.30;;;;;;;;;;6227030;23;20186;-90
2021/10/21 05:04:12;;;;;;;13.70;6.85;;;;;;;;;;6226245;23;20170;-91
2021/10/21 05:07:17;;;;;;;13.70;6.53;;;;;;;;;;6226053;23;20231;-90
2021/10/21 05:10:23;;;;;;;17.80;7.93;;;;;;;;;;6229430;23;20176;-90
2021/10/21 05:13:32;;;;;;;15.52;8.38;;;;;;;;;;6227583;23;20627;-90
2021/10/21 05:16:37;;;;;;;15.20;7.78;;;;;;;;;;6228670;23;20501;-91
2021/10/21 05:19:42;;;;;;;17.52;7.53;;;;;;;;;;6228664;23;20163;-91
2021/10/21 05:22:48;;;;;;;18.33;8.05;;;;;;;;;;6228240;23;20334;-90
2021/10/21 05:25:53;;;;;;;18.98;8.13;;;;;;;;;;6226329;23;20287;-90
2021/10/21 05:29:15;;;;;;;16.13;8.00;;;;;;;;;;6229535;23;20215;-90
2021/10/21 05:32:21;;;;;;;15.07;7.30;;;;;;;;;;6227627;23;20170;-91
2021/10/21 05:35:27;;;;;;;12.77;7.45;;;;;;;;;;6228121;23;20179;-91
2021/10/21 05:38:32;;;;;;;18.15;7.70;;;;;;;;;;6231644;23;20167;-90
2021/10/21 05:41:40;;;;;;;16.38;7.72;;;;;;;;;;6229784;23;20172;-89
2021/10/21 05:44:45;;;;;;;13.55;6.72;;;;;;;;;;6227764;23;20634;-91
2021/10/21 05:47:52;;;;;;;17.35;6.57;;;;;;;;;;6227206;23;20179;-91
2021/10/21 05:50:58;;;;;;;17.98;7.07;;;;;;;;;;6230450;23;20255;-91
2021/10/21 05:54:04;;;;;;;13.18;7.35;;;;;;;;;;6228997;23;20209;-91
2021/10/21 05:57:08;;;;;;;14.07;7.10;;;;;;;;;;6229325;23;20246;-92
2021/10/21 06:00:15;;;;;;;15.52;7.00;;;;;;;;;;6233049;23;20163;-92
